Time;durP1;ratioP1;P1;durP2;ratioP2;P2;SDS_P1;SDS_P2;PMS_P1;PMS_P2;Temp;Humidity;BMP_temperature;BMP_pressure;BME280_temperature;BME280_humidity;BME280_pressure;Samples;Min_cycle;Max_cycle;Signal;HPM_P1;HPM_P2
2021/04/28 00:01:10;;;;;;;0.50;0.40;;;7.50;99.90;;;;;;5091373;28;20182;-81
2021/04/28 00:03:37;;;;;;;0.50;0.40;;;7.50;99.90;;;;;;5092551;28;20283;-81
2021/04/28 00:06:03;;;;;;;0.50;0.40;;;7.50;99.90;;;;;;5090557;28;20194;-81
2021/04/28 00:08:29;;;;;;;1.55;1.45;;;7.50;99.90;;;;;;5089238;28;20285;-82
2021/04/28 00:10:56;;;;;;;0.70;0.70;;;7.50;99.90;;;;;;5089041;28;20194;-82
2021/04/28 00:13:22;;;;;;;2.05;1.95;;;7.60;99.90;;;;;;5089114;28;20228;-82
2021/04/28 00:15:52;;;;;;;0.57;0.57;;;7.60;99.90;;;;;;5088768;28;20202;-81
2021/04/28 00:18:19;;;;;;;0.50;0.40;;;7.60;99.90;;;;;;5079244;28;20187;-82
2021/04/28 00:20:47;;;;;;;0.50;0.40;;;7.60;99.90;;;;;;5069555;28;20194;-79
2021/04/28 00:23:13;;;;;;;0.50;0.40;;;7.50;99.90;;;;;;5073835;28;20218;-81
2021/04/28 00:25:40;;;;;;;0.50;0.40;;;7.50;99.90;;;;;;5069050;28;20275;-81
2021/04/28 00:28:06;;;;;;;0.50;0.40;;;7.60;99.90;;;;;;5069328;28;20205;-81
2021/04/28 00:30:33;;;;;;;0.50;0.40;;;7.60;99.90;;;;;;5069092;28;20205;-81
2021/04/28 00:33:01;;;;;;;0.60;0.47;;;7.60;99.90;;;;;;5068513;28;20220;-82
2021/04/28 00:35:27;;;;;;;0.50;0.40;;;7.60;99.90;;;;;;5069747;28;20195;-80
2021/04/28 00:37:54;;;;;;;0.50;0.40;;;7.60;99.90;;;;;;5069504;28;20226;-81
2021/04/28 00:40:23;;;;;;;0.50;0.40;;;7.50;99.90;;;;;;5068320;28;20195;-81
2021/04/28 00:42:50;;;;;;;0.50;0.40;;;7.40;99.90;;;;;;5068457;28;20215;-81
2021/04/28 00:45:19;;;;;;;0.50;0.40;;;7.50;99.90;;;;;;5068946;28;20213;-81
2021/04/28 00:47:46;;;;;;;0.60;0.60;;;7.50;99.90;;;;;;5076926;28;20202;-80
2021/04/28 00:50:16;;;;;;;0.50;0.40;;;7.50;99.90;;;;;;5068602;28;20233;-81
2021/04/28 00:52:43;;;;;;;0.50;0.40;;;7.50;99.90;;;;;;5067995;28;20261;-81
2021/04/28 00:55:10;;;;;;;0.50;0.40;;;7.40;99.90;;;;;;5069384;28;20285;-81
2021/04/28 00:57:37;;;;;;;0.50;0.40;;;7.40;99.90;;;;;;5068459;28;20191;-80
2021/04/28 01:00:06;;;;;;;0.50;0.40;;;7.30;99.90;;;;;;5068341;28;20222;-81
2021/04/28 01:02:32;;;;;;;0.50;0.40;;;7.30;99.90;;;;;;5067196;28;20193;-81
2021/04/28 01:04:59;;;;;;;0.50;0.40;;;7.30;99.90;;;;;;5077276;22;20283;-80
2021/04/28 01:07:26;;;;;;;0.50;0.40;;;7.30;99.90;;;;;;5032858;28;20199;-79
2021/04/28 01:09:53;;;;;;;0.50;0.50;;;7.30;99.90;;;;;;5035369;28;20672;-79
2021/04/28 01:12:21;;;;;;;0.50;0.40;;;7.30;99.90;;;;;;5034202;28;20222;-77
2021/04/28 01:14:50;;;;;;;0.50;0.40;;;7.30;99.90;;;;;;5034891;28;20218;-79
2021/04/28 01:17:18;;;;;;;0.50;0.40;;;7.20;99.90;;;;;;5039693;28;20229;-82
2021/04/28 01:19:44;;;;;;;0.50;0.40;;;7.10;99.90;;;;;;5042216;28;20191;-79
2021/04/28 01:22:12;;;;;;;0.50;0.40;;;7.00;99.90;;;;;;5055181;28;20198;-79
2021/04/28 01:24:39;;;;;;;0.50;0.40;;;6.90;99.90;;;;;;5054555;28;20260;-79
2021/04/28 01:27:16;;;;;;;0.60;0.60;;;6.80;99.90;;;;;;5054857;28;20549;-80
2021/04/28 01:29:44;;;;;;;0.50;0.40;;;6.70;99.90;;;;;;5054063;28;20200;-78
2021/04/28 01:32:14;;;;;;;0.50;0.40;;;6.60;99.90;;;;;;5054225;28;20222;-79
2021/04/28 01:34:41;;;;;;;0.60;0.60;;;6.50;99.90;;;;;;5054335;28;20626;-79
2021/04/28 01:37:08;;;;;;;0.50;0.40;;;6.40;99.90;;;;;;5054558;28;20194;-80
2021/04/28 01:39:36;;;;;;;0.50;0.40;;;6.30;99.90;;;;;;5054894;28;20586;-77
2021/04/28 01:42:04;;;;;;;0.50;0.40;;;6.30;99.90;;;;;;5053554;28;20684;-80
2021/04/28 01:44:31;;;;;;;0.60;0.60;;;6.20;99.90;;;;;;5054435;28;20234;-79
2021/04/28 01:46:58;;;;;;;0.50;0.40;;;6.20;99.90;;;;;;5054424;28;20205;-78
2021/04/28 01:49:25;;;;;;;0.50;0.40;;;6.20;99.90;;;;;;5045071;28;20599;-79
2021/04/28 01:51:55;;;;;;;0.50;0.40;;;6.20;99.90;;;;;;5052332;28;20261;-80
2021/04/28 01:54:22;;;;;;;0.50;0.40;;;6.10;99.90;;;;;;5054860;28;20198;-80
2021/04/28 01:56:50;;;;;;;0.50;0.50;;;6.10;99.90;;;;;;5053800;28;20195;-79
2021/04/28 01:59:19;;;;;;;0.50;0.40;;;6.00;99.90;;;;;;5054415;28;20206;-78
2021/04/28 02:01:46;;;;;;;0.50;0.40;;;6.00;99.90;;;;;;5054189;28;20193;-81
2021/04/28 02:04:14;;;;;;;0.50;0.40;;;6.00;99.90;;;;;;5053524;28;20199;-79
2021/04/28 02:06:41;;;;;;;0.50;0.40;;;6.00;99.90;;;;;;5054086;28;20198;-79
2021/04/28 02:09:07;;;;;;;0.50;0.40;;;6.00;99.90;;;;;;5054185;28;20237;-79
2021/04/28 02:11:34;;;;;;;0.50;0.40;;;5.90;99.90;;;;;;5053982;28;20220;-79
2021/04/28 02:14:01;;;;;;;0.50;0.40;;;5.80;99.90;;;;;;5054038;28;20191;-80
2021/04/28 02:16:31;;;;;;;0.50;0.40;;;5.80;99.90;;;;;;5053956;28;20221;-78
2021/04/28 02:18:58;;;;;;;0.50;0.40;;;5.80;99.90;;;;;;5047986;28;20573;-79
2021/04/28 02:21:25;;;;;;;0.50;0.40;;;5.80;99.90;;;;;;5048530;28;20187;-79
2021/04/28 02:23:51;;;;;;;0.50;0.40;;;5.80;99.90;;;;;;5053460;28;20236;-81
2021/04/28 02:26:18;;;;;;;0.50;0.40;;;5.70;99.90;;;;;;5054120;28;20222;-79
2021/04/28 02:28:45;;;;;;;0.50;0.40;;;5.70;99.90;;;;;;5052864;28;20234;-79
2021/04/28 02:31:11;;;;;;;0.50;0.40;;;5.60;99.90;;;;;;5053548;28;20209;-78
2021/04/28 02:33:38;;;;;;;0.50;0.40;;;5.60;99.90;;;;;;5053361;28;20244;-79
2021/04/28 02:36:06;;;;;;;0.50;0.40;;;5.60;99.90;;;;;;5053303;28;20596;-80
2021/04/28 02:38:42;;;;;;;0.50;0.40;;;5.60;99.90;;;;;;5053639;28;20206;-78
2021/04/28 02:41:09;;;;;;;0.50;0.40;;;5.60;99.90;;;;;;5053177;28;20198;-78
2021/04/28 02:43:37;;;;;;;0.50;0.40;;;5.50;99.90;;;;;;5053306;28;20572;-79
2021/04/28 02:46:05;;;;;;;0.50;0.40;;;5.50;99.90;;;;;;5052884;28;20210;-78
2021/04/28 02:48:33;;;;;;;0.50;0.40;;;5.40;99.90;;;;;;5050367;28;20655;-79
2021/04/28 02:51:00;;;;;;;0.50;0.40;;;5.40;99.90;;;;;;5044109;28;20598;-78
2021/04/28 02:53:28;;;;;;;0.50;0.40;;;5.40;99.90;;;;;;5053573;28;20211;-79
2021/04/28 02:55:56;;;;;;;0.50;0.40;;;5.30;99.90;;;;;;5052801;28;20214;-79
2021/04/28 02:58:23;;;;;;;0.50;0.40;;;5.30;99.90;;;;;;5053138;28;20207;-78
2021/04/28 03:00:50;;;;;;;0.50;0.40;;;5.30;99.90;;;;;;5053352;28;20190;-78
2021/04/28 03:03:17;;;;;;;0.50;0.40;;;5.30;99.90;;;;;;5052572;28;20202;-80
2021/04/28 03:05:44;;;;;;;0.50;0.40;;;5.30;99.90;;;;;;5052695;28;20599;-79
2021/04/28 03:08:11;;;;;;;0.50;0.40;;;5.20;99.90;;;;;;5053330;28;20198;-81
2021/04/28 03:10:39;;;;;;;3.83;1.95;;;5.20;99.90;;;;;;5053244;28;20260;-78
2021/04/28 03:13:05;;;;;;;0.50;0.40;;;5.20;99.90;;;;;;5052717;28;20587;-80
2021/04/28 03:15:32;;;;;;;0.50;0.40;;;5.20;99.90;;;;;;5052720;28;20224;-79
2021/04/28 03:17:59;;;;;;;0.50;0.40;;;5.20;99.90;;;;;;5050366;28;20202;-77
2021/04/28 03:20:26;;;;;;;0.50;0.40;;;5.10;99.90;;;;;;5044353;28;20194;-79
2021/04/28 03:22:53;;;;;;;0.50;0.40;;;5.10;99.90;;;;;;5052495;28;20603;-78
2021/04/28 03:25:21;;;;;;;0.50;0.40;;;5.10;99.90;;;;;;5052631;28;20709;-79
2021/04/28 03:27:47;;;;;;;0.50;0.40;;;5.00;99.90;;;;;;5052792;28;20197;-78
2021/04/28 03:30:14;;;;;;;1.85;1.75;;;5.00;99.90;;;;;;5052932;28;20675;-80
2021/04/28 03:32:41;;;;;;;0.50;0.40;;;5.00;99.90;;;;;;5053585;28;20218;-77
2021/04/28 03:35:08;;;;;;;0.50;0.40;;;5.00;99.90;;;;;;5053375;28;20215;-79
2021/04/28 03:37:35;;;;;;;0.50;0.40;;;5.00;99.90;;;;;;5054035;28;20203;-77
2021/04/28 03:40:01;;;;;;;0.50;0.40;;;4.90;99.90;;;;;;5052983;28;20203;-79
2021/04/28 03:42:28;;;;;;;0.50;0.40;;;4.90;99.90;;;;;;5053528;28;20186;-80
2021/04/28 03:44:56;;;;;;;0.50;0.40;;;4.90;99.90;;;;;;5053794;28;20219;-77
2021/04/28 03:47:22;;;;;;;0.50;0.40;;;4.90;99.90;;;;;;5052430;28;20218;-79
2021/04/28 03:49:49;;;;;;;0.50;0.40;;;4.90;99.90;;;;;;5043042;28;20196;-80
2021/04/28 03:52:15;;;;;;;0.50;0.40;;;4.90;99.90;;;;;;5053236;28;20307;-79
2021/04/28 03:54:41;;;;;;;0.50;0.40;;;4.90;99.90;;;;;;5053182;28;20258;-79
2021/04/28 03:57:09;;;;;;;0.50;0.40;;;4.90;99.90;;;;;;5025698;28;20197;-80
2021/04/28 03:59:36;;;;;;;0.50;0.40;;;4.90;99.90;;;;;;5030688;28;20245;-79
2021/04/28 04:02:04;;;;;;;0.50;0.50;;;4.90;99.90;;;;;;5014226;28;20204;-78
2021/04/28 04:04:30;;;;;;;0.50;0.50;;;5.00;99.90;;;;;;5015754;28;20535;-79
2021/04/28 04:06:57;;;;;;;0.50;0.40;;;5.00;99.90;;;;;;5017676;28;20292;-80
2021/04/28 04:09:23;;;;;;;0.50;0.40;;;4.90;99.90;;;;;;5016906;28;20202;-79
2021/04/28 04:11:51;;;;;;;0.50;0.40;;;4.90;99.90;;;;;;5016810;28;20224;-79
2021/04/28 04:14:18;;;;;;;0.50;0.40;;;4.80;99.90;;;;;;5018019;28;20205;-78
2021/04/28 04:16:45;;;;;;;0.50;0.50;;;4.70;99.90;;;;;;5018711;28;20199;-80
2021/04/28 04:19:11;;;;;;;0.50;0.40;;;4.80;99.90;;;;;;5042217;28;20201;-80
2021/04/28 04:21:38;;;;;;;0.50;0.40;;;4.80;99.90;;;;;;5054865;28;20282;-78
2021/04/28 04:24:05;;;;;;;1.73;1.63;;;4.90;99.90;;;;;;5056899;28;20214;-80
2021/04/28 04:26:32;;;;;;;0.60;0.60;;;5.00;99.90;;;;;;5056074;28;20230;-79
2021/04/28 04:28:58;;;;;;;0.68;0.68;;;5.10;99.90;;;;;;5056987;28;20545;-78
2021/04/28 04:31:24;;;;;;;0.50;0.40;;;5.20;99.90;;;;;;5056939;28;20206;-77
2021/04/28 04:33:51;;;;;;;2.50;2.22;;;5.20;99.90;;;;;;5057440;28;20724;-78
2021/04/28 04:36:18;;;;;;;0.50;0.40;;;5.20;99.90;;;;;;5056969;28;20228;-80
2021/04/28 04:38:44;;;;;;;0.60;0.50;;;5.20;99.90;;;;;;5056833;28;20199;-79
2021/04/28 04:41:10;;;;;;;0.50;0.40;;;5.30;99.90;;;;;;5057758;28;20677;-80
2021/04/28 04:43:37;;;;;;;3.90;2.53;;;5.30;99.90;;;;;;5058699;28;20197;-80
2021/04/28 04:46:03;;;;;;;1.35;1.25;;;5.40;99.90;;;;;;5058652;28;20271;-80
2021/04/28 04:48:29;;;;;;;0.50;0.50;;;5.40;99.90;;;;;;5054610;28;20210;-80
2021/04/28 04:50:56;;;;;;;0.50;0.40;;;5.50;99.90;;;;;;5049790;28;20261;-80
2021/04/28 04:53:23;;;;;;;0.50;0.40;;;5.50;99.90;;;;;;5058703;28;20214;-81
2021/04/28 04:55:49;;;;;;;0.50;0.40;;;5.60;99.90;;;;;;5058359;28;20307;-80
2021/04/28 04:58:15;;;;;;;0.50;0.40;;;5.70;99.90;;;;;;5058911;28;20283;-79
2021/04/28 05:00:41;;;;;;;0.50;0.40;;;5.70;99.90;;;;;;5058137;28;20266;-81
2021/04/28 05:03:08;;;;;;;0.50;0.40;;;5.70;99.90;;;;;;5055986;28;20300;-78
2021/04/28 05:05:34;;;;;;;0.70;0.70;;;5.80;99.90;;;;;;5055990;28;20222;-79
2021/04/28 05:08:01;;;;;;;0.50;0.40;;;5.80;99.90;;;;;;5056462;28;20251;-79
2021/04/28 05:10:27;;;;;;;0.52;0.52;;;5.90;99.90;;;;;;5055884;28;20195;-78
2021/04/28 05:12:54;;;;;;;0.50;0.40;;;6.00;99.90;;;;;;5055482;28;20223;-77
2021/04/28 05:15:20;;;;;;;0.50;0.40;;;6.10;99.90;;;;;;5055869;28;20229;-78
2021/04/28 05:17:47;;;;;;;0.50;0.40;;;6.10;99.90;;;;;;5053089;28;20210;-80
2021/04/28 05:20:14;;;;;;;1.55;1.45;;;6.20;99.90;;;;;;5046680;28;20237;-78
2021/04/28 05:22:41;;;;;;;0.50;0.40;;;6.30;99.90;;;;;;5055582;28;20194;-79
2021/04/28 05:25:09;;;;;;;0.80;0.80;;;6.30;99.90;;;;;;5055809;28;20214;-78
2021/04/28 05:27:36;;;;;;;0.50;0.40;;;6.50;99.90;;;;;;5054774;28;20576;-78
2021/04/28 05:30:03;;;;;;;1.02;0.68;;;6.60;99.90;;;;;;5055098;28;20250;-78
2021/04/28 05:32:29;;;;;;;0.50;0.40;;;6.70;99.90;;;;;;5054550;28;20215;-80
2021/04/28 05:34:55;;;;;;;0.50;0.40;;;6.90;99.90;;;;;;5044498;28;20284;-82
2021/04/28 05:37:22;;;;;;;0.50;0.40;;;7.00;99.90;;;;;;5025052;28;20198;-80
2021/04/28 05:39:49;;;;;;;0.50;0.40;;;7.10;99.90;;;;;;5033830;28;20202;-78
2021/04/28 05:42:17;;;;;;;2.35;1.25;;;7.20;99.90;;;;;;5034129;28;20187;-80
2021/04/28 05:44:44;;;;;;;0.80;0.80;;;7.30;99.90;;;;;;5036308;28;20215;-79
2021/04/28 05:47:10;;;;;;;0.80;0.80;;;7.40;99.90;;;;;;5035994;28;20196;-80
2021/04/28 05:49:37;;;;;;;0.93;0.85;;;7.60;99.90;;;;;;5032678;28;20564;-80
2021/04/28 05:52:04;;;;;;;0.50;0.40;;;7.60;99.90;;;;;;5032075;28;20222;-79
2021/04/28 05:54:30;;;;;;;0.50;0.50;;;7.80;99.90;;;;;;5042862;28;20311;-79
2021/04/28 05:56:56;;;;;;;0.85;0.85;;;8.50;99.90;;;;;;5033959;28;20241;-78
2021/04/28 05:59:24;;;;;;;2.05;1.25;;;10.00;99.90;;;;;;5045125;28;20196;-79
2021/04/28 06:01:50;;;;;;;1.67;1.58;;;11.90;99.90;;;;;;5049537;28;20192;-79
2021/04/28 06:04:17;;;;;;;0.88;0.70;;;13.40;99.90;;;;;;5059438;28;20198;-79
2021/04/28 06:06:43;;;;;;;0.77;0.77;;;14.60;99.90;;;;;;5058693;28;20179;-80
2021/04/28 06:09:10;;;;;;;0.50;0.40;;;15.80;95.60;;;;;;5039248;28;20518;-81
2021/04/28 06:11:36;;;;;;;1.23;0.85;;;16.70;91.40;;;;;;5036370;28;20281;-80
2021/04/28 06:14:03;;;;;;;0.60;0.57;;;18.00;83.90;;;;;;5037096;28;20207;-79
2021/04/28 06:16:31;;;;;;;0.50;0.30;;;19.20;76.80;;;;;;5039214;28;20549;-79
2021/04/28 06:18:57;;;;;;;1.43;0.90;;;20.30;69.00;;;;;;5047892;28;20484;-79
2021/04/28 06:21:23;;;;;;;0.50;0.40;;;20.10;62.60;;;;;;5052120;28;20517;-77
2021/04/28 06:23:50;;;;;;;1.90;1.03;;;19.70;62.60;;;;;;5055417;28;20519;-77
2021/04/28 06:26:17;;;;;;;0.50;0.30;;;20.10;61.70;;;;;;5054659;28;20463;-76
2021/04/28 06:28:43;;;;;;;0.50;0.40;;;21.00;63.50;;;;;;5054938;28;20477;-79
2021/04/28 06:31:09;;;;;;;0.50;0.30;;;22.40;59.60;;;;;;5056030;28;20445;-80
2021/04/28 06:33:37;;;;;;;1.00;1.00;;;23.30;57.80;;;;;;5055341;28;20484;-79
2021/04/28 06:36:03;;;;;;;0.50;0.40;;;23.20;52.90;;;;;;5055884;28;20468;-79
2021/04/28 06:38:30;;;;;;;0.50;0.40;;;23.10;53.50;;;;;;5057070;28;20433;-79
2021/04/28 06:40:56;;;;;;;0.50;0.40;;;23.80;53.80;;;;;;5055944;28;20441;-79
2021/04/28 06:43:22;;;;;;;0.50;0.50;;;24.50;53.00;;;;;;5056165;28;20437;-79
2021/04/28 06:45:48;;;;;;;0.50;0.30;;;25.20;51.50;;;;;;5037418;28;20480;-77
2021/04/28 06:48:14;;;;;;;0.50;0.30;;;25.90;51.50;;;;;;5041311;28;20512;-81
2021/04/28 06:50:42;;;;;;;0.50;0.30;;;26.50;49.10;;;;;;5047351;28;20441;-80
2021/04/28 06:53:08;;;;;;;0.90;0.90;;;26.40;48.50;;;;;;5055151;28;20567;-79
2021/04/28 06:55:34;;;;;;;6.27;1.23;;;26.60;46.80;;;;;;5056088;28;20474;-81
2021/04/28 06:58:01;;;;;;;0.50;0.37;;;26.00;47.60;;;;;;5054650;28;20441;-81
2021/04/28 07:00:29;;;;;;;0.50;0.40;;;24.90;47.10;;;;;;5054323;28;20520;-79
2021/04/28 07:02:56;;;;;;;0.50;0.43;;;23.90;48.70;;;;;;5053464;28;20529;-80
2021/04/28 07:05:24;;;;;;;1.00;0.90;;;22.90;47.90;;;;;;5053318;28;20469;-79
2021/04/28 07:07:51;;;;;;;5.37;4.97;;;21.80;48.30;;;;;;5053560;28;20445;-79
2021/04/28 07:10:18;;;;;;;0.50;0.50;;;20.50;49.90;;;;;;5054384;28;20449;-79
2021/04/28 07:12:45;;;;;;;4.90;4.57;;;20.00;51.90;;;;;;5052216;28;20551;-77
2021/04/28 07:15:12;;;;;;;5.13;1.90;;;19.80;53.20;;;;;;5053530;28;20490;-80
2021/04/28 07:17:38;;;;;;;0.60;0.60;;;19.10;52.50;;;;;;5050108;28;20461;-80
2021/04/28 07:20:06;;;;;;;0.50;0.33;;;18.30;53.60;;;;;;5040687;28;20488;-80
2021/04/28 07:22:33;;;;;;;2.10;2.00;;;17.60;54.60;;;;;;5032660;28;20528;-79
2021/04/28 07:25:00;;;;;;;0.50;0.40;;;17.40;56.20;;;;;;5032652;28;20468;-80
2021/04/28 07:27:27;;;;;;;0.73;0.73;;;17.20;57.00;;;;;;5033060;28;20438;-81
2021/04/28 07:29:53;;;;;;;0.53;0.50;;;16.70;56.60;;;;;;5031555;28;20441;-79
2021/04/28 07:32:21;;;;;;;0.50;0.40;;;16.20;57.30;;;;;;5034900;28;20473;-78
2021/04/28 07:34:47;;;;;;;0.73;0.73;;;16.40;58.40;;;;;;5036327;28;20517;-78
2021/04/28 07:37:16;;;;;;;0.87;0.83;;;16.60;57.80;;;;;;5035056;28;20468;-81
2021/04/28 07:39:43;;;;;;;0.50;0.40;;;17.10;59.10;;;;;;5037923;28;20442;-78
2021/04/28 07:42:10;;;;;;;0.50;0.43;;;18.40;59.10;;;;;;5038482;28;20489;-81
2021/04/28 07:44:36;;;;;;;1.80;1.77;;;18.90;58.10;;;;;;5039073;28;20473;-79
2021/04/28 07:47:03;;;;;;;0.53;0.40;;;19.30;58.70;;;;;;5038210;28;20452;-78
2021/04/28 07:49:30;;;;;;;0.60;0.50;;;19.40;59.90;;;;;;5046977;28;20435;-78
2021/04/28 07:51:56;;;;;;;0.50;0.30;;;19.00;54.90;;;;;;5055390;28;20452;-80
2021/04/28 07:54:25;;;;;;;0.50;0.40;;;18.90;56.20;;;;;;5057831;28;20444;-79
2021/04/28 07:56:51;;;;;;;0.70;0.67;;;19.10;57.30;;;;;;5060323;28;20453;-79
2021/04/28 07:59:18;;;;;;;0.50;0.30;;;19.80;57.20;;;;;;5061519;28;20452;-80
2021/04/28 08:01:44;;;;;;;0.50;0.40;;;19.90;53.80;;;;;;5061308;28;20436;-80
2021/04/28 08:04:11;;;;;;;1.90;1.80;;;20.30;57.00;;;;;;5058612;28;20452;-81
2021/04/28 08:06:37;;;;;;;0.50;0.30;;;20.60;55.10;;;;;;5057737;28;20457;-79
2021/04/28 08:09:05;;;;;;;1.13;1.10;;;21.70;54.40;;;;;;5059054;28;20436;-79
2021/04/28 08:11:31;;;;;;;1.67;1.57;;;22.30;52.90;;;;;;5058313;28;20510;-81
2021/04/28 08:13:58;;;;;;;0.50;0.30;;;22.90;52.00;;;;;;5059020;28;20465;-80
2021/04/28 08:16:25;;;;;;;0.60;0.60;;;23.60;53.30;;;;;;5059774;28;20982;-81
2021/04/28 08:18:51;;;;;;;1.37;0.53;;;24.10;47.80;;;;;;5054930;28;20807;-78
2021/04/28 08:21:18;;;;;;;2.30;1.90;;;23.40;47.00;;;;;;5053575;28;20437;-80
2021/04/28 08:23:44;;;;;;;0.50;0.40;;;22.00;48.30;;;;;;5058996;28;20441;-79
2021/04/28 08:26:12;;;;;;;0.63;0.57;;;20.80;49.50;;;;;;5060715;28;20795;-80
2021/04/28 08:28:41;;;;;;;0.50;0.30;;;20.10;52.20;;;;;;5058226;28;20444;-79
2021/04/28 08:31:08;;;;;;;0.50;0.50;;;19.70;51.70;;;;;;5040306;28;20469;-80
2021/04/28 08:33:36;;;;;;;0.67;0.40;;;19.30;52.80;;;;;;5038863;28;20881;-78
2021/04/28 08:36:02;;;;;;;0.80;0.77;;;19.60;54.20;;;;;;5039618;28;20469;-79
2021/04/28 08:38:29;;;;;;;1.53;1.43;;;19.70;51.60;;;;;;5039078;28;20446;-81
2021/04/28 08:40:55;;;;;;;3.33;1.37;;;20.10;52.00;;;;;;5036650;28;20440;-81
2021/04/28 08:43:23;;;;;;;0.50;0.30;;;20.70;52.60;;;;;;5037188;28;20902;-80
2021/04/28 08:45:50;;;;;;;0.50;0.40;;;20.60;51.10;;;;;;5038125;28;20475;-81
2021/04/28 08:48:16;;;;;;;0.70;0.70;;;20.30;54.60;;;;;;5043964;28;20493;-81
2021/04/28 08:50:44;;;;;;;0.50;0.30;;;20.20;51.70;;;;;;5047894;28;20433;-80
2021/04/28 08:53:12;;;;;;;0.50;0.40;;;20.00;53.50;;;;;;5057631;28;20476;-81
2021/04/28 08:55:39;;;;;;;0.50;0.30;;;20.00;53.60;;;;;;5057590;28;20972;-81
2021/04/28 08:58:06;;;;;;;0.50;0.33;;;20.10;55.10;;;;;;5057556;28;20440;-80
2021/04/28 09:00:32;;;;;;;0.80;0.80;;;20.20;53.60;;;;;;5057664;28;20915;-81
2021/04/28 09:03:00;;;;;;;1.17;1.07;;;20.90;52.70;;;;;;5056749;28;20439;-79
2021/04/28 09:05:27;;;;;;;0.70;0.70;;;22.10;53.20;;;;;;5058352;28;20492;-79
2021/04/28 09:07:55;;;;;;;2.73;1.43;;;22.80;50.60;;;;;;5058464;28;20806;-80
2021/04/28 09:10:22;;;;;;;0.60;0.50;;;23.50;50.50;;;;;;5059014;28;20437;-82
2021/04/28 09:12:57;;;;;;;4.77;0.97;;;24.10;52.50;;;;;;5057077;28;20518;-79
2021/04/28 09:15:38;;;;;;;0.50;0.30;;;25.20;50.40;;;;;;5057104;28;20467;-80
2021/04/28 09:18:07;;;;;;;1.13;1.13;;;25.30;48.20;;;;;;5058116;28;20433;-79
2021/04/28 09:20:36;;;;;;;1.20;1.10;;;24.80;47.60;;;;;;5051964;28;20450;-79
2021/04/28 09:23:09;;;;;;;1.57;1.47;;;24.00;47.70;;;;;;5060337;28;20436;-79
2021/04/28 09:25:38;;;;;;;0.50;0.33;;;23.00;45.90;;;;;;5060557;28;20457;-78
2021/04/28 09:28:21;;;;;;;0.93;0.70;;;22.50;44.40;;;;;;5060735;28;21010;-80
2021/04/28 09:30:48;;;;;;;0.50;0.50;;;21.80;46.70;;;;;;5037544;28;20845;-79
2021/04/28 09:33:14;;;;;;;0.83;0.83;;;21.30;48.10;;;;;;5036740;28;20477;-80
2021/04/28 09:35:40;;;;;;;0.90;0.90;;;21.40;49.10;;;;;;5036485;28;20493;-81
2021/04/28 09:38:08;;;;;;;2.50;2.07;;;21.50;51.40;;;;;;5036333;28;20441;-81
2021/04/28 09:40:43;;;;;;;2.03;1.93;;;21.80;48.20;;;;;;5037391;28;20500;-80
2021/04/28 09:43:09;;;;;;;2.10;1.87;;;21.80;47.50;;;;;;5035520;28;20438;-80
2021/04/28 09:45:41;;;;;;;0.50;0.40;;;21.40;47.30;;;;;;5035872;28;20465;-77
2021/04/28 09:48:10;;;;;;;0.50;0.40;;;21.20;49.00;;;;;;5040027;28;20448;-80
2021/04/28 09:50:37;;;;;;;0.50;0.30;;;21.40;48.50;;;;;;5047084;28;20471;-82
2021/04/28 09:53:04;;;;;;;0.70;0.70;;;21.40;50.50;;;;;;5058201;28;20472;-80
2021/04/28 09:55:44;;;;;;;1.90;1.80;;;21.80;49.30;;;;;;5060982;28;20540;-78
2021/04/28 09:58:12;;;;;;;0.97;0.60;;;21.50;46.40;;;;;;5060852;28;20445;-79
2021/04/28 10:00:39;;;;;;;2.93;0.87;;;21.60;49.90;;;;;;5058956;28;20445;-79
2021/04/28 10:03:08;;;;;;;0.50;0.40;;;21.90;50.20;;;;;;5057329;28;20490;-79
2021/04/28 10:05:36;;;;;;;0.90;0.90;;;22.10;49.40;;;;;;5054955;28;20472;-80
2021/04/28 10:08:11;;;;;;;0.63;0.60;;;22.10;45.80;;;;;;5055053;28;20441;-81
2021/04/28 10:10:42;;;;;;;1.07;0.97;;;22.00;46.40;;;;;;5055553;28;20437;-80
2021/04/28 10:13:08;;;;;;;0.50;0.30;;;22.20;50.30;;;;;;5054480;28;20473;-79
2021/04/28 10:15:36;;;;;;;0.50;0.30;;;22.80;47.90;;;;;;5054672;28;20461;-79
2021/04/28 10:18:04;;;;;;;0.50;0.30;;;23.10;45.90;;;;;;5052451;28;20451;-80
2021/04/28 10:20:32;;;;;;;0.90;0.70;;;23.60;47.10;;;;;;5046588;28;20441;-80
2021/04/28 10:23:03;;;;;;;0.50;0.40;;;24.50;48.10;;;;;;5055411;28;20512;-80
2021/04/28 10:25:29;;;;;;;0.50;0.40;;;25.10;44.80;;;;;;5043468;28;20458;-79
2021/04/28 10:27:57;;;;;;;0.50;0.30;;;24.80;44.90;;;;;;5045570;28;20468;-80
2021/04/28 10:30:24;;;;;;;0.50;0.30;;;25.20;46.40;;;;;;5037097;28;20785;-76
2021/04/28 10:32:52;;;;;;;0.50;0.30;;;26.20;44.50;;;;;;5034306;28;20890;-79
2021/04/28 10:35:20;;;;;;;0.80;0.80;;;26.80;46.90;;;;;;5033625;28;20477;-80
2021/04/28 10:37:50;;;;;;;1.23;0.80;;;27.90;44.10;;;;;;5035215;28;20940;-81
2021/04/28 10:40:17;;;;;;;34.77;6.43;;;27.10;43.80;;;;;;5034851;28;20947;-80
2021/04/28 10:42:44;;;;;;;0.67;0.50;;;27.00;43.00;;;;;;5035372;28;20430;-79
2021/04/28 10:45:37;;;;;;;2.13;1.50;;;26.10;42.20;;;;;;5035668;28;20549;-79
2021/04/28 10:48:04;;;;;;;0.50;0.40;;;24.20;41.90;;;;;;5037843;28;20445;-80
2021/04/28 10:50:37;;;;;;;1.70;0.60;;;23.40;45.50;;;;;;5046743;28;20441;-80
2021/04/28 10:53:07;;;;;;;1.47;1.37;;;23.90;46.10;;;;;;5055818;28;20501;-80
2021/04/28 10:55:42;;;;;;;0.50;0.40;;;24.20;47.20;;;;;;5055442;28;20465;-79
2021/04/28 10:58:45;;;;;;;0.50;0.40;;;24.70;48.20;;;;;;5058448;28;20941;-79
2021/04/28 11:01:22;;;;;;;0.80;0.80;;;24.80;44.00;;;;;;5012544;28;21002;-81
2021/04/28 11:03:51;;;;;;;0.50;0.30;;;25.00;45.60;;;;;;5054936;28;20823;-76
2021/04/28 11:06:37;;;;;;;1.60;0.83;;;24.90;43.50;;;;;;5054529;28;20551;-78
2021/04/28 11:09:12;;;;;;;2.50;1.47;;;24.00;42.60;;;;;;5056097;28;20456;-78
2021/04/28 11:11:42;;;;;;;1.47;1.37;;;23.70;42.00;;;;;;5055747;28;20523;-78
2021/04/28 11:14:35;;;;;;;0.97;0.93;;;23.50;43.50;;;;;;5057958;28;20536;-79
2021/04/28 11:17:04;;;;;;;0.50;0.40;;;23.40;44.10;;;;;;5058575;28;20451;-79
2021/04/28 11:19:33;;;;;;;0.70;0.70;;;23.10;42.90;;;;;;5048005;28;20522;-79
2021/04/28 11:22:20;;;;;;;2.03;1.93;;;22.70;43.10;;;;;;5057980;28;20476;-78
2021/04/28 11:24:58;;;;;;;1.43;1.33;;;22.40;43.40;;;;;;5059231;28;21031;-79
2021/04/28 11:28:00;;;;;;;2.43;2.23;;;22.80;47.50;;;;;;5059910;28;20768;-79
2021/04/28 11:30:36;;;;;;;0.50;0.30;;;23.50;46.30;;;;;;5041691;28;20449;-78
2021/04/28 11:33:34;;;;;;;1.10;0.60;;;23.80;43.80;;;;;;5018686;28;20558;-78
2021/04/28 11:36:21;;;;;;;2.10;0.90;;;23.60;42.10;;;;;;5018864;28;20446;-80
2021/04/28 11:38:52;;;;;;;0.60;0.50;;;23.20;42.90;;;;;;5017955;28;20995;-77
2021/04/28 11:41:22;;;;;;;4.40;1.33;;;23.60;45.40;;;;;;5016916;28;20552;-79
2021/04/28 11:43:51;;;;;;;11.00;8.73;;;23.40;42.70;;;;;;5017402;28;20451;-76
2021/04/28 11:46:19;;;;;;;0.50;0.40;;;23.20;44.00;;;;;;5017934;28;20451;-79
2021/04/28 11:53:27;;;;;;;1.00;1.00;;;23.60;44.20;;;;;;5133478;27;20528;-77
2021/04/28 11:55:53;;;;;;;0.50;0.40;;;24.00;44.90;;;;;;5132367;28;20450;-77
2021/04/28 11:58:25;;;;;;;0.60;0.60;;;24.40;45.50;;;;;;5132449;28;20498;-79
2021/04/28 12:01:01;;;;;;;0.50;0.30;;;25.50;46.80;;;;;;5131987;27;20495;-78
2021/04/28 12:03:27;;;;;;;0.50;0.40;;;26.60;43.40;;;;;;5132393;28;20439;-78
2021/04/28 12:05:53;;;;;;;1.87;1.53;;;27.10;40.00;;;;;;5131083;28;20555;-78
2021/04/28 12:08:19;;;;;;;1.23;1.13;;;27.20;40.00;;;;;;5131576;28;20444;-79
2021/04/28 12:10:55;;;;;;;0.50;0.30;;;26.60;39.50;;;;;;5131767;27;20433;-77
2021/04/28 12:13:21;;;;;;;0.83;0.80;;;26.10;39.50;;;;;;5133678;28;20832;-82
2021/04/28 12:15:52;;;;;;;0.63;0.63;;;26.50;43.10;;;;;;5132071;28;20507;-81
2021/04/28 12:18:32;;;;;;;0.50;0.50;;;27.20;39.00;;;;;;5135637;27;20440;-78
2021/04/28 12:20:59;;;;;;;0.50;0.30;;;27.30;38.90;;;;;;5142409;27;20425;-76
2021/04/28 12:23:26;;;;;;;0.77;0.77;;;28.30;40.60;;;;;;5152447;27;20429;-79
2021/04/28 12:25:53;;;;;;;0.70;0.60;;;28.50;37.80;;;;;;5152711;27;20460;-79
2021/04/28 12:28:20;;;;;;;2.30;2.20;;;28.80;37.50;;;;;;5151329;27;20459;-79
2021/04/28 12:30:49;;;;;;;0.50;0.40;;;29.80;39.90;;;;;;5130208;27;20459;-79
2021/04/28 12:33:16;;;;;;;0.50;0.30;;;30.80;36.60;;;;;;5130435;27;21028;-79
2021/04/28 12:35:44;;;;;;;0.50;0.30;;;31.70;37.30;;;;;;5130408;27;20476;-79
2021/04/28 12:38:13;;;;;;;0.60;0.60;;;32.40;35.40;;;;;;5131460;27;20433;-79
2021/04/28 12:40:41;;;;;;;0.70;0.70;;;31.30;34.00;;;;;;5131703;27;20529;-77
2021/04/28 12:43:10;;;;;;;0.93;0.83;;;30.30;34.70;;;;;;5131040;27;20801;-78
2021/04/28 12:45:37;;;;;;;0.70;0.40;;;29.00;34.60;;;;;;5131104;27;20449;-77
2021/04/28 12:48:08;;;;;;;0.70;0.50;;;28.50;36.40;;;;;;5131757;27;20424;-78
2021/04/28 12:50:36;;;;;;;0.50;0.40;;;29.60;36.90;;;;;;5143051;27;20435;-78
2021/04/28 12:53:07;;;;;;;0.60;0.50;;;30.30;36.70;;;;;;5150617;27;20981;-79
2021/04/28 12:55:38;;;;;;;0.50;0.30;;;31.20;37.00;;;;;;5133391;27;20453;-78
2021/04/28 12:58:06;;;;;;;0.77;0.77;;;32.10;34.80;;;;;;5109747;28;20448;-79
2021/04/28 13:00:40;;;;;;;2.17;0.93;;;32.00;32.90;;;;;;5109269;28;20530;-79